Southam, United Kingdom
Current Conditions -  °F | °C
As of 6:50 PM on Saturday 20 Dec 2014 (Local Time) from EGBE Reporting Station
Scattered Clouds Scattered Clouds  
Wind Chill: 41°   Ceiling: Unl
Heat Index: 45°   Visibility: 6mi
Dew Point: 39°   Wind: 7mph
Humidity: 81%   Direction: 270°W
Pressure: 30.39"   Gusts: NA
Location:  52.25°N, 1.39°W
Report Text: EGBE 201850Z 27006KT 9999 SCT039 07/04 Q1029
Loading
Personal Weather Stations






























Interactive Weather Map New forecast layout! Learn more

10-Day Weather Forecast

Advertisements
Track Severe Weather on mobile